sensor_id;sensor_type;location;lat;lon;timestamp;pressure;altitude;pressure_sealevel;temperature;humidity
25232;BME280;13176;51.140;6.290;2023-05-23T00:01:52;101042.31;;;20.11;71.51
25232;BME280;13176;51.140;6.290;2023-05-23T00:04:20;101034.63;;;20.05;71.94
25232;BME280;13176;51.140;6.290;2023-05-23T00:06:47;101033.69;;;20.06;71.88
25232;BME280;13176;51.140;6.290;2023-05-23T00:09:15;100931.78;;;19.40;72.02
25232;BME280;13176;51.140;6.290;2023-05-23T00:11:42;101047.31;;;19.99;72.75
25232;BME280;13176;51.140;6.290;2023-05-23T00:14:12;101039.31;;;20.00;72.82
25232;BME280;13176;51.140;6.290;2023-05-23T00:16:42;101029.91;;;19.93;72.27
25232;BME280;13176;51.140;6.290;2023-05-23T00:19:10;100989.38;;;19.73;72.41
25232;BME280;13176;51.140;6.290;2023-05-23T00:21:37;101031.94;;;19.87;73.18
25232;BME280;13176;51.140;6.290;2023-05-23T00:24:04;101033.47;;;19.92;73.14
25232;BME280;13176;51.140;6.290;2023-05-23T00:26:34;100970.25;;;19.48;73.24
25232;BME280;13176;51.140;6.290;2023-05-23T00:29:00;101048.06;;;20.02;73.59
25232;BME280;13176;51.140;6.290;2023-05-23T00:31:27;101046.53;;;20.15;72.58
25232;BME280;13176;51.140;6.290;2023-05-23T00:33:53;101056.94;;;20.20;72.82
25232;BME280;13176;51.140;6.290;2023-05-23T00:36:20;101068.53;;;20.17;72.95
25232;BME280;13176;51.140;6.290;2023-05-23T00:38:49;101045.03;;;20.10;72.84
25232;BME280;13176;51.140;6.290;2023-05-23T00:41:15;101050.47;;;20.25;71.75
25232;BME280;13176;51.140;6.290;2023-05-23T00:43:43;101049.31;;;20.12;72.42
25232;BME280;13176;51.140;6.290;2023-05-23T00:46:10;101082.19;;;20.27;72.51
25232;BME280;13176;51.140;6.290;2023-05-23T00:48:37;101041.19;;;19.98;73.10
25232;BME280;13176;51.140;6.290;2023-05-23T00:51:04;101071.59;;;20.08;73.43
25232;BME280;13176;51.140;6.290;2023-05-23T00:53:30;101094.31;;;20.14;73.18
25232;BME280;13176;51.140;6.290;2023-05-23T00:55:57;101085.78;;;20.07;72.13
25232;BME280;13176;51.140;6.290;2023-05-23T00:58:24;101068.75;;;19.74;72.04
25232;BME280;13176;51.140;6.290;2023-05-23T01:00:51;101070.47;;;19.75;71.31
25232;BME280;13176;51.140;6.290;2023-05-23T01:03:19;101069.03;;;19.87;70.37
25232;BME280;13176;51.140;6.290;2023-05-23T01:05:46;101097.44;;;20.03;69.77
25232;BME280;13176;51.140;6.290;2023-05-23T01:08:12;101074.13;;;19.73;69.84
25232;BME280;13176;51.140;6.290;2023-05-23T01:10:40;100930.16;;;18.79;69.40
25232;BME280;13176;51.140;6.290;2023-05-23T01:13:22;101085.81;;;19.87;69.37
25232;BME280;13176;51.140;6.290;2023-05-23T01:16:06;101079.63;;;19.87;69.27
25232;BME280;13176;51.140;6.290;2023-05-23T01:18:43;101069.00;;;19.68;68.78
25232;BME280;13176;51.140;6.290;2023-05-23T01:21:15;101103.84;;;19.79;69.41
25232;BME280;13176;51.140;6.290;2023-05-23T01:24:15;101102.63;;;19.86;69.20
25232;BME280;13176;51.140;6.290;2023-05-23T01:27:00;101075.81;;;19.55;69.04
25232;BME280;13176;51.140;6.290;2023-05-23T01:32:00;101094.25;;;19.57;69.54
25232;BME280;13176;51.140;6.290;2023-05-23T01:34:29;101087.72;;;19.46;69.99
25232;BME280;13176;51.140;6.290;2023-05-23T01:36:56;101078.97;;;19.44;70.01
25232;BME280;13176;51.140;6.290;2023-05-23T01:39:23;101042.50;;;19.10;70.69
25232;BME280;13176;51.140;6.290;2023-05-23T01:41:50;101105.06;;;19.52;70.29
25232;BME280;13176;51.140;6.290;2023-05-23T01:44:19;101071.06;;;19.24;70.62
25232;BME280;13176;51.140;6.290;2023-05-23T01:46:47;101095.81;;;19.23;70.34
25232;BME280;13176;51.140;6.290;2023-05-23T01:49:15;101095.91;;;19.40;70.16
25232;BME280;13176;51.140;6.290;2023-05-23T01:51:44;101104.22;;;19.70;69.47
25232;BME280;13176;51.140;6.290;2023-05-23T01:54:13;101111.38;;;19.68;68.69
25232;BME280;13176;51.140;6.290;2023-05-23T01:56:42;101102.38;;;19.72;68.20
25232;BME280;13176;51.140;6.290;2023-05-23T01:59:08;101081.44;;;19.48;67.90
25232;BME280;13176;51.140;6.290;2023-05-23T02:01:36;101118.41;;;19.69;67.84
25232;BME280;13176;51.140;6.290;2023-05-23T02:04:03;101104.81;;;19.58;67.61
25232;BME280;13176;51.140;6.290;2023-05-23T02:06:30;101102.94;;;19.60;67.38
25232;BME280;13176;51.140;6.290;2023-05-23T02:08:57;101094.72;;;19.47;67.24
25232;BME280;13176;51.140;6.290;2023-05-23T02:11:23;101009.81;;;18.91;67.59
25232;BME280;13176;51.140;6.290;2023-05-23T02:13:49;101100.81;;;19.49;67.58
25232;BME280;13176;51.140;6.290;2023-05-23T02:16:16;101120.56;;;19.61;67.78
25232;BME280;13176;51.140;6.290;2023-05-23T02:18:43;101118.94;;;19.38;68.74
25232;BME280;13176;51.140;6.290;2023-05-23T02:21:11;101030.38;;;18.85;69.27
25232;BME280;13176;51.140;6.290;2023-05-23T02:23:37;100996.09;;;18.62;69.13
25232;BME280;13176;51.140;6.290;2023-05-23T02:26:04;101106.91;;;19.31;69.27
25232;BME280;13176;51.140;6.290;2023-05-23T02:28:30;101110.09;;;19.39;69.82
25232;BME280;13176;51.140;6.290;2023-05-23T02:30:57;101126.63;;;19.44;69.48
25232;BME280;13176;51.140;6.290;2023-05-23T02:33:23;101072.59;;;18.88;70.24
25232;BME280;13176;51.140;6.290;2023-05-23T02:35:50;101093.72;;;19.09;70.50
25232;BME280;13176;51.140;6.290;2023-05-23T02:38:16;101120.00;;;19.34;70.51
25232;BME280;13176;51.140;6.290;2023-05-23T02:40:45;101085.69;;;19.11;70.59
25232;BME280;13176;51.140;6.290;2023-05-23T02:43:11;101120.47;;;19.02;70.95
25232;BME280;13176;51.140;6.290;2023-05-23T02:45:38;101121.47;;;19.21;70.79
25232;BME280;13176;51.140;6.290;2023-05-23T02:48:04;101126.00;;;19.17;70.93
25232;BME280;13176;51.140;6.290;2023-05-23T02:50:31;101020.69;;;18.64;70.60
25232;BME280;13176;51.140;6.290;2023-05-23T02:52:57;101137.47;;;19.18;71.43
25232;BME280;13176;51.140;6.290;2023-05-23T02:55:24;101133.22;;;19.14;71.02
25232;BME280;13176;51.140;6.290;2023-05-23T02:57:50;101150.34;;;19.27;70.98
25232;BME280;13176;51.140;6.290;2023-05-23T03:00:17;101138.41;;;19.17;71.18
25232;BME280;13176;51.140;6.290;2023-05-23T03:02:44;101145.63;;;19.12;71.38
25232;BME280;13176;51.140;6.290;2023-05-23T03:05:10;101113.88;;;19.12;71.12
25232;BME280;13176;51.140;6.290;2023-05-23T03:07:37;101132.09;;;18.98;71.57
25232;BME280;13176;51.140;6.290;2023-05-23T03:10:04;101121.63;;;18.95;71.08
25232;BME280;13176;51.140;6.290;2023-05-23T03:12:31;101157.59;;;19.22;70.96
25232;BME280;13176;51.140;6.290;2023-05-23T03:14:57;101139.91;;;19.01;71.16
25232;BME280;13176;51.140;6.290;2023-05-23T03:17:24;101143.97;;;19.09;70.41
25232;BME280;13176;51.140;6.290;2023-05-23T03:19:51;101169.56;;;19.09;70.66
25232;BME280;13176;51.140;6.290;2023-05-23T03:22:18;101118.50;;;18.85;70.79
25232;BME280;13176;51.140;6.290;2023-05-23T03:24:44;101150.09;;;18.90;71.49
25232;BME280;13176;51.140;6.290;2023-05-23T03:27:11;101138.53;;;19.12;70.70
25232;BME280;13176;51.140;6.290;2023-05-23T03:29:38;101155.88;;;19.21;70.72
25232;BME280;13176;51.140;6.290;2023-05-23T03:32:05;101165.06;;;19.11;71.01
25232;BME280;13176;51.140;6.290;2023-05-23T03:34:32;101147.84;;;19.01;71.18
25232;BME280;13176;51.140;6.290;2023-05-23T03:36:59;101139.00;;;18.80;71.82
25232;BME280;13176;51.140;6.290;2023-05-23T03:39:25;101154.13;;;18.77;71.99
25232;BME280;13176;51.140;6.290;2023-05-23T03:41:52;101173.69;;;18.73;72.37
25232;BME280;13176;51.140;6.290;2023-05-23T03:44:19;101141.63;;;18.59;72.00
25232;BME280;13176;51.140;6.290;2023-05-23T03:46:46;101090.19;;;18.46;71.67
25232;BME280;13176;51.140;6.290;2023-05-23T03:49:12;101100.25;;;18.58;71.61
25232;BME280;13176;51.140;6.290;2023-05-23T03:51:39;101157.47;;;18.82;71.98
25232;BME280;13176;51.140;6.290;2023-05-23T03:54:05;101054.56;;;18.33;71.94
25232;BME280;13176;51.140;6.290;2023-05-23T03:56:32;101167.41;;;18.97;71.83
25232;BME280;13176;51.140;6.290;2023-05-23T03:58:58;101167.91;;;19.06;71.34
25232;BME280;13176;51.140;6.290;2023-05-23T04:01:26;101156.06;;;18.73;71.45
25232;BME280;13176;51.140;6.290;2023-05-23T04:03:53;101135.91;;;18.48;71.94
25232;BME280;13176;51.140;6.290;2023-05-23T04:06:19;101184.03;;;18.79;71.90
25232;BME280;13176;51.140;6.290;2023-05-23T04:08:48;101085.72;;;18.25;71.66
25232;BME280;13176;51.140;6.290;2023-05-23T04:11:14;101104.56;;;18.39;71.99
25232;BME280;13176;51.140;6.290;2023-05-23T04:13:41;101180.81;;;18.71;72.25
25232;BME280;13176;51.140;6.290;2023-05-23T04:16:08;101176.03;;;18.80;72.06
25232;BME280;13176;51.140;6.290;2023-05-23T04:18:34;101047.81;;;18.03;72.04
25232;BME280;13176;51.140;6.290;2023-05-23T04:21:04;101160.00;;;18.62;72.17
25232;BME280;13176;51.140;6.290;2023-05-23T04:23:31;101185.09;;;18.52;73.04
25232;BME280;13176;51.140;6.290;2023-05-23T04:25:58;101175.78;;;18.42;73.46
25232;BME280;13176;51.140;6.290;2023-05-23T04:28:25;101145.13;;;18.38;73.08
25232;BME280;13176;51.140;6.290;2023-05-23T04:30:52;101184.53;;;18.44;73.91
25232;BME280;13176;51.140;6.290;2023-05-23T04:33:19;101069.50;;;17.88;73.41
25232;BME280;13176;51.140;6.290;2023-05-23T04:35:46;101149.28;;;18.43;73.41
25232;BME280;13176;51.140;6.290;2023-05-23T04:38:12;101100.34;;;18.11;72.95
25232;BME280;13176;51.140;6.290;2023-05-23T04:40:39;101105.91;;;18.28;72.13
25232;BME280;13176;51.140;6.290;2023-05-23T04:43:05;101182.06;;;18.84;71.83
25232;BME280;13176;51.140;6.290;2023-05-23T04:45:34;101189.44;;;18.76;71.82
25232;BME280;13176;51.140;6.290;2023-05-23T04:48:02;101130.41;;;18.54;71.88
25232;BME280;13176;51.140;6.290;2023-05-23T04:50:28;101202.53;;;18.79;71.85
25232;BME280;13176;51.140;6.290;2023-05-23T04:52:58;101163.47;;;18.64;72.13
25232;BME280;13176;51.140;6.290;2023-05-23T04:55:24;101190.25;;;18.78;71.53
25232;BME280;13176;51.140;6.290;2023-05-23T04:57:51;101164.19;;;18.46;72.54
25232;BME280;13176;51.140;6.290;2023-05-23T05:00:18;101178.78;;;18.56;72.43
25232;BME280;13176;51.140;6.290;2023-05-23T05:02:45;101192.88;;;18.78;71.93
25232;BME280;13176;51.140;6.290;2023-05-23T05:05:12;101208.06;;;18.73;72.86
25232;BME280;13176;51.140;6.290;2023-05-23T05:07:38;101212.53;;;18.71;72.51
25232;BME280;13176;51.140;6.290;2023-05-23T05:10:05;101212.31;;;18.77;72.43
25232;BME280;13176;51.140;6.290;2023-05-23T05:12:32;101210.81;;;18.70;72.90
25232;BME280;13176;51.140;6.290;2023-05-23T05:14:59;101223.94;;;18.73;73.03
25232;BME280;13176;51.140;6.290;2023-05-23T05:17:26;101167.63;;;18.48;72.68
25232;BME280;13176;51.140;6.290;2023-05-23T05:19:53;101235.09;;;18.81;72.83
25232;BME280;13176;51.140;6.290;2023-05-23T05:22:19;101220.16;;;18.57;73.31
25232;BME280;13176;51.140;6.290;2023-05-23T05:24:46;101236.69;;;18.85;72.84
25232;BME280;13176;51.140;6.290;2023-05-23T05:27:12;101147.66;;;17.94;73.41
25232;BME280;13176;51.140;6.290;2023-05-23T05:29:39;101210.16;;;18.42;74.10
25232;BME280;13176;51.140;6.290;2023-05-23T05:32:05;101122.44;;;17.85;73.82
25232;BME280;13176;51.140;6.290;2023-05-23T05:34:34;101210.44;;;18.35;74.23
25232;BME280;13176;51.140;6.290;2023-05-23T05:37:03;101135.72;;;17.84;74.57
25232;BME280;13176;51.140;6.290;2023-05-23T05:39:29;101252.22;;;18.48;74.58
25232;BME280;13176;51.140;6.290;2023-05-23T05:41:55;101254.47;;;18.58;74.41
25232;BME280;13176;51.140;6.290;2023-05-23T05:44:22;101243.38;;;18.49;74.74
25232;BME280;13176;51.140;6.290;2023-05-23T05:46:48;101253.34;;;18.64;74.19
25232;BME280;13176;51.140;6.290;2023-05-23T05:49:15;101259.53;;;18.64;74.51
25232;BME280;13176;51.140;6.290;2023-05-23T05:51:41;101243.47;;;18.69;74.55
25232;BME280;13176;51.140;6.290;2023-05-23T05:54:08;101249.69;;;18.68;74.53
25232;BME280;13176;51.140;6.290;2023-05-23T05:56:34;101231.97;;;18.70;74.21
25232;BME280;13176;51.140;6.290;2023-05-23T05:59:01;101261.53;;;18.81;73.72
25232;BME280;13176;51.140;6.290;2023-05-23T06:01:27;101209.59;;;18.57;73.66
25232;BME280;13176;51.140;6.290;2023-05-23T06:03:54;101199.25;;;18.51;73.02
25232;BME280;13176;51.140;6.290;2023-05-23T06:06:20;101241.44;;;18.75;73.13
25232;BME280;13176;51.140;6.290;2023-05-23T06:08:47;101221.50;;;18.67;73.24
25232;BME280;13176;51.140;6.290;2023-05-23T06:11:14;101255.56;;;18.76;73.49
25232;BME280;13176;51.140;6.290;2023-05-23T06:13:40;101262.91;;;18.91;73.35
25232;BME280;13176;51.140;6.290;2023-05-23T06:16:06;101128.34;;;18.16;73.11
25232;BME280;13176;51.140;6.290;2023-05-23T06:18:33;101250.50;;;18.93;73.34
25232;BME280;13176;51.140;6.290;2023-05-23T06:21:00;101259.34;;;18.92;73.33
25232;BME280;13176;51.140;6.290;2023-05-23T06:23:26;101168.44;;;18.27;73.49
25232;BME280;13176;51.140;6.290;2023-05-23T06:25:53;101257.63;;;18.91;73.05
25232;BME280;13176;51.140;6.290;2023-05-23T06:28:19;101274.84;;;19.01;73.19
25232;BME280;13176;51.140;6.290;2023-05-23T06:30:46;101210.09;;;18.43;73.51
25232;BME280;13176;51.140;6.290;2023-05-23T06:33:12;101146.56;;;17.99;73.52
25232;BME280;13176;51.140;6.290;2023-05-23T06:35:39;101256.47;;;18.52;73.89
25232;BME280;13176;51.140;6.290;2023-05-23T06:38:05;101270.50;;;18.54;74.23
25232;BME280;13176;51.140;6.290;2023-05-23T06:40:31;101280.47;;;18.70;74.22
25232;BME280;13176;51.140;6.290;2023-05-23T06:42:58;101252.81;;;18.56;73.86
25232;BME280;13176;51.140;6.290;2023-05-23T06:45:24;101223.75;;;18.07;74.69
25232;BME280;13176;51.140;6.290;2023-05-23T06:47:51;101260.75;;;18.56;74.19
25232;BME280;13176;51.140;6.290;2023-05-23T06:50:17;101270.03;;;18.43;74.58
25232;BME280;13176;51.140;6.290;2023-05-23T06:52:45;101301.44;;;18.52;74.94
25232;BME280;13176;51.140;6.290;2023-05-23T06:55:15;101269.91;;;18.46;74.30
25232;BME280;13176;51.140;6.290;2023-05-23T06:57:44;101270.72;;;18.48;74.48
25232;BME280;13176;51.140;6.290;2023-05-23T07:00:12;101274.63;;;18.38;74.47
25232;BME280;13176;51.140;6.290;2023-05-23T07:02:39;101253.00;;;18.27;74.22
25232;BME280;13176;51.140;6.290;2023-05-23T07:05:06;101266.75;;;18.37;74.48
25232;BME280;13176;51.140;6.290;2023-05-23T07:07:32;101298.31;;;18.64;74.64
25232;BME280;13176;51.140;6.290;2023-05-23T07:09:59;101302.56;;;18.68;74.72
25232;BME280;13176;51.140;6.290;2023-05-23T07:12:25;101303.88;;;18.56;74.91
25232;BME280;13176;51.140;6.290;2023-05-23T07:14:51;101294.63;;;18.45;75.13
25232;BME280;13176;51.140;6.290;2023-05-23T07:17:18;101280.22;;;18.53;75.30
25232;BME280;13176;51.140;6.290;2023-05-23T07:19:45;101317.50;;;18.69;75.43
25232;BME280;13176;51.140;6.290;2023-05-23T07:22:11;101118.00;;;17.38;75.76
25232;BME280;13176;51.140;6.290;2023-05-23T07:24:37;101212.78;;;17.70;76.52
25232;BME280;13176;51.140;6.290;2023-05-23T07:27:04;101168.00;;;17.67;75.83
25232;BME280;13176;51.140;6.290;2023-05-23T07:29:31;101335.53;;;18.58;75.30
25232;BME280;13176;51.140;6.290;2023-05-23T07:31:58;101197.16;;;17.38;75.89
25232;BME280;13176;51.140;6.290;2023-05-23T07:34:24;101338.47;;;18.26;75.46
25232;BME280;13176;51.140;6.290;2023-05-23T07:36:52;101339.91;;;17.84;76.91
25232;BME280;13176;51.140;6.290;2023-05-23T07:39:18;101341.69;;;17.84;78.14
25232;BME280;13176;51.140;6.290;2023-05-23T07:41:47;101352.06;;;17.88;77.29
25232;BME280;13176;51.140;6.290;2023-05-23T07:44:15;101295.47;;;17.71;76.92
25232;BME280;13176;51.140;6.290;2023-05-23T07:46:41;101282.50;;;17.37;77.47
25232;BME280;13176;51.140;6.290;2023-05-23T07:49:08;101352.34;;;17.81;77.78
25232;BME280;13176;51.140;6.290;2023-05-23T07:51:35;101352.13;;;17.87;77.68
25232;BME280;13176;51.140;6.290;2023-05-23T07:54:01;101340.09;;;18.04;76.94
25232;BME280;13176;51.140;6.290;2023-05-23T07:56:28;101345.81;;;18.17;76.77
25232;BME280;13176;51.140;6.290;2023-05-23T07:58:54;101335.84;;;17.74;77.16
25232;BME280;13176;51.140;6.290;2023-05-23T08:01:21;101273.97;;;17.55;76.41
25232;BME280;13176;51.140;6.290;2023-05-23T08:03:47;101366.75;;;17.71;77.54
25232;BME280;13176;51.140;6.290;2023-05-23T08:06:14;101315.31;;;17.56;76.79
25232;BME280;13176;51.140;6.290;2023-05-23T08:08:40;101350.16;;;17.67;77.84
25232;BME280;13176;51.140;6.290;2023-05-23T08:11:08;101350.25;;;17.64;77.74
25232;BME280;13176;51.140;6.290;2023-05-23T08:13:35;101345.69;;;17.69;77.40
25232;BME280;13176;51.140;6.290;2023-05-23T08:16:02;101333.69;;;17.85;76.93
25232;BME280;13176;51.140;6.290;2023-05-23T08:18:28;101378.72;;;18.08;76.29
25232;BME280;13176;51.140;6.290;2023-05-23T08:20:56;101365.38;;;17.85;76.42
25232;BME280;13176;51.140;6.290;2023-05-23T08:23:22;101366.00;;;17.93;75.85
25232;BME280;13176;51.140;6.290;2023-05-23T08:25:50;101270.31;;;17.33;75.57
25232;BME280;13176;51.140;6.290;2023-05-23T08:28:17;101375.75;;;17.91;75.61
25232;BME280;13176;51.140;6.290;2023-05-23T08:30:44;101350.81;;;17.74;75.50
25232;BME280;13176;51.140;6.290;2023-05-23T08:33:10;101377.19;;;17.75;74.90
25232;BME280;13176;51.140;6.290;2023-05-23T08:35:38;101245.34;;;16.89;74.97
25232;BME280;13176;51.140;6.290;2023-05-23T08:38:05;101372.53;;;17.83;74.54
25232;BME280;13176;51.140;6.290;2023-05-23T08:40:35;101365.28;;;17.88;73.66
25232;BME280;13176;51.140;6.290;2023-05-23T08:43:01;101310.28;;;17.49;73.26
25232;BME280;13176;51.140;6.290;2023-05-23T08:45:28;101303.13;;;17.52;72.95
25232;BME280;13176;51.140;6.290;2023-05-23T08:47:59;101387.75;;;18.01;72.72
25232;BME280;13176;51.140;6.290;2023-05-23T08:50:29;101378.16;;;18.23;72.14
25232;BME280;13176;51.140;6.290;2023-05-23T08:52:57;101369.09;;;18.06;71.90
25232;BME280;13176;51.140;6.290;2023-05-23T08:55:25;101397.13;;;18.10;71.25
25232;BME280;13176;51.140;6.290;2023-05-23T08:57:53;101392.84;;;18.07;71.13
25232;BME280;13176;51.140;6.290;2023-05-23T09:00:21;101280.28;;;16.97;70.25
25232;BME280;13176;51.140;6.290;2023-05-23T09:02:48;101415.25;;;17.68;71.06
25232;BME280;13176;51.140;6.290;2023-05-23T09:05:15;101311.28;;;16.89;70.66
25232;BME280;13176;51.140;6.290;2023-05-23T09:07:44;101441.06;;;17.59;70.88
25232;BME280;13176;51.140;6.290;2023-05-23T09:10:14;101342.22;;;17.11;70.86
25232;BME280;13176;51.140;6.290;2023-05-23T09:12:42;101417.00;;;17.68;69.75
25232;BME280;13176;51.140;6.290;2023-05-23T09:15:09;101422.63;;;17.57;69.53
25232;BME280;13176;51.140;6.290;2023-05-23T09:17:36;101426.84;;;17.90;68.83
25232;BME280;13176;51.140;6.290;2023-05-23T09:20:10;101436.81;;;17.82;68.40
25232;BME280;13176;51.140;6.290;2023-05-23T09:22:37;101398.50;;;17.68;67.93
25232;BME280;13176;51.140;6.290;2023-05-23T09:25:04;101418.78;;;17.95;66.92
25232;BME280;13176;51.140;6.290;2023-05-23T09:27:30;101437.78;;;18.06;66.32
25232;BME280;13176;51.140;6.290;2023-05-23T09:29:57;101430.63;;;18.09;65.43
25232;BME280;13176;51.140;6.290;2023-05-23T09:32:30;101427.78;;;18.15;65.55
25232;BME280;13176;51.140;6.290;2023-05-23T09:35:05;101447.84;;;18.48;65.37
25232;BME280;13176;51.140;6.290;2023-05-23T09:37:39;101434.66;;;18.21;63.55
25232;BME280;13176;51.140;6.290;2023-05-23T09:40:08;101264.97;;;17.36;63.85
25232;BME280;13176;51.140;6.290;2023-05-23T09:42:41;101261.31;;;17.40;63.49
25232;BME280;13176;51.140;6.290;2023-05-23T09:45:13;101292.28;;;17.61;63.33
25232;BME280;13176;51.140;6.290;2023-05-23T09:47:50;101455.88;;;18.45;62.21
25232;BME280;13176;51.140;6.290;2023-05-23T09:50:18;101360.50;;;18.01;62.14
25232;BME280;13176;51.140;6.290;2023-05-23T09:52:44;101415.91;;;18.28;60.94
25232;BME280;13176;51.140;6.290;2023-05-23T09:55:12;101351.88;;;18.20;61.12
25232;BME280;13176;51.140;6.290;2023-05-23T09:57:41;101443.84;;;19.10;61.62
25232;BME280;13176;51.140;6.290;2023-05-23T10:00:09;101428.13;;;19.52;61.82
25232;BME280;13176;51.140;6.290;2023-05-23T10:05:34;101437.97;;;20.36;58.96
25232;BME280;13176;51.140;6.290;2023-05-23T10:08:07;101402.13;;;20.26;57.89
25232;BME280;13176;51.140;6.290;2023-05-23T10:10:34;101403.75;;;20.30;57.68
25232;BME280;13176;51.140;6.290;2023-05-23T10:13:16;101389.69;;;20.28;56.62
25232;BME280;13176;51.140;6.290;2023-05-23T10:15:43;101433.75;;;20.72;57.04
25232;BME280;13176;51.140;6.290;2023-05-23T10:18:17;101412.09;;;20.41;54.87
25232;BME280;13176;51.140;6.290;2023-05-23T10:20:52;101345.09;;;19.96;55.52
25232;BME280;13176;51.140;6.290;2023-05-23T10:23:20;101315.88;;;19.76;54.79
25232;BME280;13176;51.140;6.290;2023-05-23T10:25:47;101322.78;;;19.59;55.45
25232;BME280;13176;51.140;6.290;2023-05-23T10:28:14;101407.00;;;19.94;55.09
25232;BME280;13176;51.140;6.290;2023-05-23T10:30:41;101435.69;;;20.27;55.55
25232;BME280;13176;51.140;6.290;2023-05-23T10:33:09;101424.69;;;19.93;53.43
25232;BME280;13176;51.140;6.290;2023-05-23T10:35:49;101395.47;;;19.73;54.26
25232;BME280;13176;51.140;6.290;2023-05-23T10:38:37;101398.00;;;19.99;54.38
25232;BME280;13176;51.140;6.290;2023-05-23T10:41:09;101395.13;;;19.82;52.55
25232;BME280;13176;51.140;6.290;2023-05-23T10:44:00;101441.59;;;20.12;53.41
25232;BME280;13176;51.140;6.290;2023-05-23T10:46:57;101447.78;;;20.13;52.80
25232;BME280;13176;51.140;6.290;2023-05-23T10:52:02;101409.91;;;20.09;53.24
25232;BME280;13176;51.140;6.290;2023-05-23T10:54:46;101436.41;;;20.31;52.85
25232;BME280;13176;51.140;6.290;2023-05-23T10:57:18;101347.19;;;19.88;52.31
25232;BME280;13176;51.140;6.290;2023-05-23T10:59:45;101417.53;;;20.38;52.50
25232;BME280;13176;51.140;6.290;2023-05-23T11:02:13;101448.22;;;20.44;53.40
25232;BME280;13176;51.140;6.290;2023-05-23T11:04:43;101432.22;;;20.25;52.36
25232;BME280;13176;51.140;6.290;2023-05-23T11:07:29;101434.81;;;20.05;52.87
25232;BME280;13176;51.140;6.290;2023-05-23T11:10:10;101430.97;;;19.91;53.13
25232;BME280;13176;51.140;6.290;2023-05-23T11:12:41;101444.94;;;20.17;54.04
25232;BME280;13176;51.140;6.290;2023-05-23T11:15:18;101448.09;;;20.47;54.40
25232;BME280;13176;51.140;6.290;2023-05-23T11:17:54;101456.28;;;20.62;53.48
25232;BME280;13176;51.140;6.290;2023-05-23T11:20:23;101406.31;;;20.32;51.18
25232;BME280;13176;51.140;6.290;2023-05-23T11:23:01;101424.56;;;20.39;50.22
25232;BME280;13176;51.140;6.290;2023-05-23T11:25:47;101443.28;;;20.56;50.70
25232;BME280;13176;51.140;6.290;2023-05-23T11:28:14;101437.03;;;20.57;50.43
25232;BME280;13176;51.140;6.290;2023-05-23T11:30:42;101454.56;;;20.81;50.92
25232;BME280;13176;51.140;6.290;2023-05-23T11:33:11;101354.53;;;20.23;50.75
25232;BME280;13176;51.140;6.290;2023-05-23T11:35:45;101454.09;;;20.71;51.13
25232;BME280;13176;51.140;6.290;2023-05-23T11:38:13;101459.94;;;20.99;51.74
25232;BME280;13176;51.140;6.290;2023-05-23T11:40:41;101464.84;;;21.08;51.62
25232;BME280;13176;51.140;6.290;2023-05-23T11:43:13;101462.50;;;21.21;51.39
25232;BME280;13176;51.140;6.290;2023-05-23T11:45:40;101451.16;;;21.17;50.37
25232;BME280;13176;51.140;6.290;2023-05-23T11:48:12;101467.19;;;21.34;50.15
25232;BME280;13176;51.140;6.290;2023-05-23T11:53:12;101367.13;;;20.98;50.10
25232;BME280;13176;51.140;6.290;2023-05-23T11:55:39;101380.19;;;21.21;49.59
25232;BME280;13176;51.140;6.290;2023-05-23T11:58:09;101467.53;;;21.47;48.42
25232;BME280;13176;51.140;6.290;2023-05-23T12:00:42;101457.63;;;21.12;49.55
25232;BME280;13176;51.140;6.290;2023-05-23T12:03:09;101447.56;;;20.59;49.58
25232;BME280;13176;51.140;6.290;2023-05-23T12:05:37;101469.72;;;20.99;50.21
25232;BME280;13176;51.140;6.290;2023-05-23T12:08:03;101453.09;;;21.14;50.02
25232;BME280;13176;51.140;6.290;2023-05-23T12:10:29;101441.19;;;21.04;48.88
25232;BME280;13176;51.140;6.290;2023-05-23T12:12:56;101455.00;;;21.49;48.60
25232;BME280;13176;51.140;6.290;2023-05-23T12:15:26;101462.38;;;21.62;47.04
25232;BME280;13176;51.140;6.290;2023-05-23T12:17:54;101464.72;;;21.87;48.08
25232;BME280;13176;51.140;6.290;2023-05-23T12:20:22;101449.50;;;22.25;48.72
25232;BME280;13176;51.140;6.290;2023-05-23T12:22:49;101461.94;;;22.60;49.72
25232;BME280;13176;51.140;6.290;2023-05-23T12:25:16;101468.59;;;22.16;45.05
25232;BME280;13176;51.140;6.290;2023-05-23T12:27:42;101462.38;;;21.81;44.78
25232;BME280;13176;51.140;6.290;2023-05-23T12:30:13;101466.47;;;22.23;46.38
25232;BME280;13176;51.140;6.290;2023-05-23T12:32:41;101461.78;;;22.63;41.81
25232;BME280;13176;51.140;6.290;2023-05-23T12:35:09;101463.34;;;22.67;40.94
25232;BME280;13176;51.140;6.290;2023-05-23T12:37:38;101464.19;;;23.02;42.12
25232;BME280;13176;51.140;6.290;2023-05-23T12:40:15;101470.69;;;22.62;41.80
25232;BME280;13176;51.140;6.290;2023-05-23T12:42:52;101466.47;;;22.41;41.92
25232;BME280;13176;51.140;6.290;2023-05-23T12:45:20;101452.53;;;22.36;42.61
25232;BME280;13176;51.140;6.290;2023-05-23T12:47:47;101457.97;;;22.33;43.20
25232;BME280;13176;51.140;6.290;2023-05-23T12:50:16;101293.50;;;21.20;42.60
25232;BME280;13176;51.140;6.290;2023-05-23T12:52:43;101391.41;;;21.83;42.29
25232;BME280;13176;51.140;6.290;2023-05-23T12:55:10;101472.34;;;22.12;42.44
25232;BME280;13176;51.140;6.290;2023-05-23T12:57:38;101454.19;;;21.67;42.26
25232;BME280;13176;51.140;6.290;2023-05-23T13:00:05;101462.91;;;21.50;42.10
25232;BME280;13176;51.140;6.290;2023-05-23T13:02:31;101463.09;;;21.66;43.08
25232;BME280;13176;51.140;6.290;2023-05-23T13:04:58;101394.34;;;21.40;41.79
25232;BME280;13176;51.140;6.290;2023-05-23T13:07:24;101428.00;;;21.94;41.60